sensor_id;sensor_type;location;lat;lon;timestamp;P1;durP1;ratioP1;P2;durP2;ratioP2
11334;SDS011;5722;42.620;23.374;2022-09-13T00:01:56;7.03;;;4.30;;
11334;SDS011;5722;42.620;23.374;2022-09-13T00:04:25;4.73;;;4.30;;
11334;SDS011;5722;42.620;23.374;2022-09-13T00:06:54;7.17;;;4.50;;
11334;SDS011;5722;42.620;23.374;2022-09-13T00:09:21;4.70;;;4.30;;
11334;SDS011;5722;42.620;23.374;2022-09-13T00:11:48;4.80;;;4.30;;
11334;SDS011;5722;42.620;23.374;2022-09-13T00:14:18;5.00;;;4.37;;
11334;SDS011;5722;42.620;23.374;2022-09-13T00:16:45;5.27;;;4.53;;
11334;SDS011;5722;42.620;23.374;2022-09-13T00:19:16;5.10;;;4.60;;
11334;SDS011;5722;42.620;23.374;2022-09-13T00:21:44;5.23;;;4.70;;
11334;SDS011;5722;42.620;23.374;2022-09-13T00:24:12;8.27;;;4.90;;
11334;SDS011;5722;42.620;23.374;2022-09-13T00:26:39;7.30;;;4.93;;
11334;SDS011;5722;42.620;23.374;2022-09-13T00:29:07;6.77;;;5.00;;
11334;SDS011;5722;42.620;23.374;2022-09-13T00:31:35;4.87;;;4.37;;
11334;SDS011;5722;42.620;23.374;2022-09-13T00:34:02;5.80;;;5.03;;
11334;SDS011;5722;42.620;23.374;2022-09-13T00:36:31;6.23;;;4.20;;
11334;SDS011;5722;42.620;23.374;2022-09-13T00:39:00;6.73;;;4.87;;
11334;SDS011;5722;42.620;23.374;2022-09-13T00:41:28;5.10;;;4.60;;
11334;SDS011;5722;42.620;23.374;2022-09-13T00:43:56;5.87;;;4.97;;
11334;SDS011;5722;42.620;23.374;2022-09-13T00:46:26;5.70;;;4.40;;
11334;SDS011;5722;42.620;23.374;2022-09-13T00:49:00;6.20;;;4.73;;
11334;SDS011;5722;42.620;23.374;2022-09-13T00:51:37;5.80;;;4.53;;
11334;SDS011;5722;42.620;23.374;2022-09-13T00:54:10;5.17;;;4.63;;
11334;SDS011;5722;42.620;23.374;2022-09-13T00:56:41;4.70;;;4.30;;
11334;SDS011;5722;42.620;23.374;2022-09-13T00:59:11;5.10;;;4.50;;
11334;SDS011;5722;42.620;23.374;2022-09-13T01:01:43;4.17;;;3.80;;
11334;SDS011;5722;42.620;23.374;2022-09-13T01:04:14;5.00;;;4.40;;
11334;SDS011;5722;42.620;23.374;2022-09-13T01:06:44;7.23;;;4.67;;
11334;SDS011;5722;42.620;23.374;2022-09-13T01:09:13;5.13;;;4.53;;
11334;SDS011;5722;42.620;23.374;2022-09-13T01:11:42;8.87;;;4.67;;
11334;SDS011;5722;42.620;23.374;2022-09-13T01:14:15;5.30;;;4.77;;
11334;SDS011;5722;42.620;23.374;2022-09-13T01:16:47;7.30;;;4.10;;
11334;SDS011;5722;42.620;23.374;2022-09-13T01:19:14;5.10;;;4.63;;
11334;SDS011;5722;42.620;23.374;2022-09-13T01:21:58;7.63;;;4.47;;
11334;SDS011;5722;42.620;23.374;2022-09-13T01:31:03;5.20;;;4.70;;
11334;SDS011;5722;42.620;23.374;2022-09-13T01:33:36;4.83;;;4.23;;
11334;SDS011;5722;42.620;23.374;2022-09-13T01:36:23;5.00;;;4.50;;
11334;SDS011;5722;42.620;23.374;2022-09-13T01:39:09;4.57;;;4.03;;
11334;SDS011;5722;42.620;23.374;2022-09-13T01:41:52;5.83;;;4.10;;
11334;SDS011;5722;42.620;23.374;2022-09-13T01:44:38;6.53;;;4.23;;
11334;SDS011;5722;42.620;23.374;2022-09-13T01:47:23;4.70;;;4.20;;
11334;SDS011;5722;42.620;23.374;2022-09-13T01:49:56;5.80;;;4.33;;
11334;SDS011;5722;42.620;23.374;2022-09-13T01:52:37;4.50;;;4.00;;
11334;SDS011;5722;42.620;23.374;2022-09-13T01:55:12;6.00;;;4.27;;
11334;SDS011;5722;42.620;23.374;2022-09-13T01:57:50;5.83;;;3.80;;
11334;SDS011;5722;42.620;23.374;2022-09-13T02:00:20;4.37;;;3.97;;
11334;SDS011;5722;42.620;23.374;2022-09-13T02:02:50;5.93;;;4.17;;
11334;SDS011;5722;42.620;23.374;2022-09-13T02:05:23;4.70;;;4.13;;
11334;SDS011;5722;42.620;23.374;2022-09-13T02:07:58;4.73;;;4.17;;
11334;SDS011;5722;42.620;23.374;2022-09-13T02:10:32;5.27;;;4.00;;
11334;SDS011;5722;42.620;23.374;2022-09-13T02:13:04;5.07;;;4.40;;
11334;SDS011;5722;42.620;23.374;2022-09-13T02:15:39;4.67;;;4.00;;
11334;SDS011;5722;42.620;23.374;2022-09-13T02:18:12;4.73;;;4.23;;
11334;SDS011;5722;42.620;23.374;2022-09-13T02:20:44;4.97;;;4.10;;
11334;SDS011;5722;42.620;23.374;2022-09-13T02:23:14;5.43;;;4.07;;
11334;SDS011;5722;42.620;23.374;2022-09-13T02:25:46;4.97;;;4.50;;
11334;SDS011;5722;42.620;23.374;2022-09-13T02:28:18;5.47;;;4.23;;
11334;SDS011;5722;42.620;23.374;2022-09-13T02:30:50;6.37;;;4.20;;
11334;SDS011;5722;42.620;23.374;2022-09-13T02:33:25;6.07;;;4.27;;
11334;SDS011;5722;42.620;23.374;2022-09-13T02:35:58;7.07;;;3.93;;
11334;SDS011;5722;42.620;23.374;2022-09-13T02:38:30;8.70;;;4.07;;
11334;SDS011;5722;42.620;23.374;2022-09-13T02:41:04;10.07;;;4.53;;
11334;SDS011;5722;42.620;23.374;2022-09-13T02:43:36;6.20;;;3.93;;
11334;SDS011;5722;42.620;23.374;2022-09-13T02:46:10;4.53;;;4.13;;
11334;SDS011;5722;42.620;23.374;2022-09-13T02:48:49;7.10;;;4.10;;
11334;SDS011;5722;42.620;23.374;2022-09-13T02:51:29;5.87;;;4.33;;
11334;SDS011;5722;42.620;23.374;2022-09-13T02:54:08;5.30;;;4.33;;
11334;SDS011;5722;42.620;23.374;2022-09-13T02:56:43;4.70;;;4.20;;
11334;SDS011;5722;42.620;23.374;2022-09-13T02:59:19;5.90;;;3.87;;
11334;SDS011;5722;42.620;23.374;2022-09-13T03:01:53;4.90;;;4.23;;
11334;SDS011;5722;42.620;23.374;2022-09-13T03:04:27;5.73;;;4.27;;
11334;SDS011;5722;42.620;23.374;2022-09-13T03:06:54;5.80;;;3.70;;
11334;SDS011;5722;42.620;23.374;2022-09-13T03:09:21;4.70;;;4.20;;
11334;SDS011;5722;42.620;23.374;2022-09-13T03:11:55;6.40;;;4.07;;
11334;SDS011;5722;42.620;23.374;2022-09-13T03:14:38;5.90;;;4.07;;
11334;SDS011;5722;42.620;23.374;2022-09-13T03:17:18;5.70;;;4.00;;
11334;SDS011;5722;42.620;23.374;2022-09-13T03:20:10;3.93;;;3.60;;
11334;SDS011;5722;42.620;23.374;2022-09-13T03:22:55;7.33;;;3.80;;
11334;SDS011;5722;42.620;23.374;2022-09-13T03:25:42;10.07;;;4.10;;
11334;SDS011;5722;42.620;23.374;2022-09-13T03:28:23;5.07;;;4.10;;
11334;SDS011;5722;42.620;23.374;2022-09-13T03:31:00;5.90;;;3.60;;
11334;SDS011;5722;42.620;23.374;2022-09-13T03:33:34;4.73;;;3.80;;
11334;SDS011;5722;42.620;23.374;2022-09-13T03:36:11;6.07;;;3.90;;
11334;SDS011;5722;42.620;23.374;2022-09-13T03:38:43;4.67;;;4.13;;
11334;SDS011;5722;42.620;23.374;2022-09-13T03:41:19;5.50;;;3.80;;
11334;SDS011;5722;42.620;23.374;2022-09-13T03:43:48;5.00;;;3.90;;
11334;SDS011;5722;42.620;23.374;2022-09-13T03:46:19;5.87;;;3.43;;
11334;SDS011;5722;42.620;23.374;2022-09-13T03:48:55;5.10;;;3.53;;
11334;SDS011;5722;42.620;23.374;2022-09-13T03:51:27;5.60;;;3.50;;
11334;SDS011;5722;42.620;23.374;2022-09-13T03:53:59;6.50;;;3.50;;
11334;SDS011;5722;42.620;23.374;2022-09-13T03:56:35;4.23;;;3.90;;
11334;SDS011;5722;42.620;23.374;2022-09-13T03:59:08;4.50;;;3.70;;
11334;SDS011;5722;42.620;23.374;2022-09-13T04:01:40;5.37;;;3.83;;
11334;SDS011;5722;42.620;23.374;2022-09-13T04:04:09;5.93;;;3.60;;
11334;SDS011;5722;42.620;23.374;2022-09-13T04:06:45;7.27;;;4.17;;
11334;SDS011;5722;42.620;23.374;2022-09-13T04:09:14;6.40;;;3.83;;
11334;SDS011;5722;42.620;23.374;2022-09-13T04:11:47;5.63;;;3.60;;
11334;SDS011;5722;42.620;23.374;2022-09-13T04:14:17;5.07;;;3.67;;
11334;SDS011;5722;42.620;23.374;2022-09-13T04:16:56;4.27;;;3.63;;
11334;SDS011;5722;42.620;23.374;2022-09-13T04:19:38;5.03;;;3.77;;
11334;SDS011;5722;42.620;23.374;2022-09-13T04:22:14;5.67;;;3.50;;
11334;SDS011;5722;42.620;23.374;2022-09-13T04:24:42;4.07;;;3.67;;
11334;SDS011;5722;42.620;23.374;2022-09-13T04:27:13;5.07;;;3.60;;
11334;SDS011;5722;42.620;23.374;2022-09-13T04:29:41;5.57;;;3.50;;
11334;SDS011;5722;42.620;23.374;2022-09-13T04:32:10;4.13;;;3.50;;
11334;SDS011;5722;42.620;23.374;2022-09-13T04:34:44;4.70;;;3.40;;
11334;SDS011;5722;42.620;23.374;2022-09-13T04:37:33;3.80;;;3.17;;
11334;SDS011;5722;42.620;23.374;2022-09-13T04:40:01;5.80;;;3.80;;
11334;SDS011;5722;42.620;23.374;2022-09-13T04:42:28;6.23;;;3.80;;
11334;SDS011;5722;42.620;23.374;2022-09-13T04:44:57;5.50;;;3.80;;
11334;SDS011;5722;42.620;23.374;2022-09-13T04:50:21;4.00;;;3.60;;
11334;SDS011;5722;42.620;23.374;2022-09-13T04:52:55;4.17;;;3.63;;
11334;SDS011;5722;42.620;23.374;2022-09-13T04:55:22;7.27;;;3.70;;
11334;SDS011;5722;42.620;23.374;2022-09-13T04:57:59;6.80;;;3.80;;
11334;SDS011;5722;42.620;23.374;2022-09-13T05:00:27;4.63;;;3.70;;
11334;SDS011;5722;42.620;23.374;2022-09-13T05:02:57;5.30;;;3.87;;
11334;SDS011;5722;42.620;23.374;2022-09-13T05:05:44;6.00;;;3.90;;
11334;SDS011;5722;42.620;23.374;2022-09-13T05:08:13;7.23;;;3.60;;
11334;SDS011;5722;42.620;23.374;2022-09-13T05:10:41;5.37;;;3.90;;
11334;SDS011;5722;42.620;23.374;2022-09-13T05:13:09;4.60;;;3.97;;
11334;SDS011;5722;42.620;23.374;2022-09-13T05:15:39;4.57;;;3.17;;
11334;SDS011;5722;42.620;23.374;2022-09-13T05:18:07;5.07;;;3.80;;
11334;SDS011;5722;42.620;23.374;2022-09-13T05:20:35;3.73;;;3.43;;
11334;SDS011;5722;42.620;23.374;2022-09-13T05:23:06;5.93;;;3.90;;
11334;SDS011;5722;42.620;23.374;2022-09-13T05:25:38;6.57;;;3.77;;
11334;SDS011;5722;42.620;23.374;2022-09-13T05:28:06;4.97;;;3.97;;
11334;SDS011;5722;42.620;23.374;2022-09-13T05:30:33;6.03;;;3.70;;
11334;SDS011;5722;42.620;23.374;2022-09-13T05:33:01;5.13;;;3.70;;
11334;SDS011;5722;42.620;23.374;2022-09-13T05:35:29;6.00;;;3.30;;
11334;SDS011;5722;42.620;23.374;2022-09-13T05:38:01;4.00;;;3.20;;
11334;SDS011;5722;42.620;23.374;2022-09-13T05:40:28;4.70;;;3.43;;
11334;SDS011;5722;42.620;23.374;2022-09-13T05:42:58;6.63;;;3.10;;
11334;SDS011;5722;42.620;23.374;2022-09-13T05:45:25;5.07;;;3.60;;
11334;SDS011;5722;42.620;23.374;2022-09-13T05:47:54;4.63;;;3.03;;
11334;SDS011;5722;42.620;23.374;2022-09-13T05:50:21;5.33;;;3.20;;
11334;SDS011;5722;42.620;23.374;2022-09-13T05:52:50;3.65;;;3.10;;
11334;SDS011;5722;42.620;23.374;2022-09-13T05:55:18;3.50;;;3.20;;
11334;SDS011;5722;42.620;23.374;2022-09-13T05:57:46;3.57;;;3.10;;
11334;SDS011;5722;42.620;23.374;2022-09-13T06:00:19;4.90;;;3.83;;
11334;SDS011;5722;42.620;23.374;2022-09-13T06:02:46;4.50;;;3.17;;
11334;SDS011;5722;42.620;23.374;2022-09-13T06:05:14;5.50;;;3.13;;
11334;SDS011;5722;42.620;23.374;2022-09-13T06:07:42;4.87;;;3.07;;
11334;SDS011;5722;42.620;23.374;2022-09-13T06:10:15;4.60;;;3.00;;
11334;SDS011;5722;42.620;23.374;2022-09-13T06:12:44;6.43;;;3.43;;
11334;SDS011;5722;42.620;23.374;2022-09-13T06:15:12;7.50;;;3.13;;
11334;SDS011;5722;42.620;23.374;2022-09-13T06:17:41;4.07;;;3.07;;
11334;SDS011;5722;42.620;23.374;2022-09-13T06:20:12;6.77;;;3.40;;
11334;SDS011;5722;42.620;23.374;2022-09-13T06:22:44;3.27;;;2.97;;
11334;SDS011;5722;42.620;23.374;2022-09-13T06:25:13;3.90;;;2.90;;
11334;SDS011;5722;42.620;23.374;2022-09-13T06:27:41;3.30;;;3.00;;
11334;SDS011;5722;42.620;23.374;2022-09-13T06:30:09;4.07;;;2.87;;
11334;SDS011;5722;42.620;23.374;2022-09-13T06:32:42;5.53;;;3.23;;
11334;SDS011;5722;42.620;23.374;2022-09-13T06:35:13;3.47;;;3.17;;
11334;SDS011;5722;42.620;23.374;2022-09-13T06:37:40;4.72;;;3.10;;
11334;SDS011;5722;42.620;23.374;2022-09-13T06:40:08;5.75;;;3.35;;
11334;SDS011;5722;42.620;23.374;2022-09-13T06:42:37;4.60;;;2.90;;
11334;SDS011;5722;42.620;23.374;2022-09-13T06:45:05;7.30;;;3.10;;
11334;SDS011;5722;42.620;23.374;2022-09-13T06:47:33;3.93;;;3.60;;
11334;SDS011;5722;42.620;23.374;2022-09-13T06:50:04;3.85;;;3.35;;
11334;SDS011;5722;42.620;23.374;2022-09-13T06:52:32;3.60;;;3.20;;
11334;SDS011;5722;42.620;23.374;2022-09-13T06:55:00;3.28;;;2.85;;
11334;SDS011;5722;42.620;23.374;2022-09-13T06:57:29;3.22;;;2.83;;
11334;SDS011;5722;42.620;23.374;2022-09-13T06:59:56;5.85;;;3.20;;
11334;SDS011;5722;42.620;23.374;2022-09-13T07:02:25;5.45;;;3.33;;
11334;SDS011;5722;42.620;23.374;2022-09-13T07:04:54;4.13;;;2.90;;
11334;SDS011;5722;42.620;23.374;2022-09-13T07:07:23;3.45;;;3.10;;
11334;SDS011;5722;42.620;23.374;2022-09-13T07:09:51;3.75;;;3.00;;
11334;SDS011;5722;42.620;23.374;2022-09-13T07:12:18;4.10;;;3.22;;
11334;SDS011;5722;42.620;23.374;2022-09-13T07:14:46;3.30;;;3.00;;
11334;SDS011;5722;42.620;23.374;2022-09-13T07:17:14;4.65;;;3.00;;
11334;SDS011;5722;42.620;23.374;2022-09-13T07:19:41;3.50;;;3.20;;
11334;SDS011;5722;42.620;23.374;2022-09-13T07:22:10;4.72;;;3.20;;
11334;SDS011;5722;42.620;23.374;2022-09-13T07:24:40;5.20;;;3.22;;
11334;SDS011;5722;42.620;23.374;2022-09-13T07:27:08;3.55;;;3.22;;
11334;SDS011;5722;42.620;23.374;2022-09-13T07:29:35;3.38;;;3.08;;
11334;SDS011;5722;42.620;23.374;2022-09-13T07:32:03;4.45;;;2.90;;
11334;SDS011;5722;42.620;23.374;2022-09-13T07:34:33;3.20;;;2.90;;
11334;SDS011;5722;42.620;23.374;2022-09-13T07:37:01;3.00;;;2.67;;
11334;SDS011;5722;42.620;23.374;2022-09-13T07:39:33;6.05;;;3.00;;
11334;SDS011;5722;42.620;23.374;2022-09-13T07:42:09;3.08;;;2.60;;
11334;SDS011;5722;42.620;23.374;2022-09-13T07:44:40;3.30;;;2.58;;
11334;SDS011;5722;42.620;23.374;2022-09-13T07:47:10;3.13;;;2.63;;
11334;SDS011;5722;42.620;23.374;2022-09-13T07:49:37;2.58;;;2.38;;
11334;SDS011;5722;42.620;23.374;2022-09-13T07:52:05;3.63;;;2.40;;
11334;SDS011;5722;42.620;23.374;2022-09-13T07:55:38;3.88;;;2.58;;
11334;SDS011;5722;42.620;23.374;2022-09-13T07:57:56;3.03;;;2.55;;
11334;SDS011;5722;42.620;23.374;2022-09-13T08:00:24;4.68;;;2.38;;
11334;SDS011;5722;42.620;23.374;2022-09-13T08:03:02;4.35;;;2.13;;
11334;SDS011;5722;42.620;23.374;2022-09-13T08:05:48;3.25;;;1.90;;
11334;SDS011;5722;42.620;23.374;2022-09-13T08:08:22;2.95;;;2.65;;
11334;SDS011;5722;42.620;23.374;2022-09-13T08:11:12;2.80;;;2.50;;
11334;SDS011;5722;42.620;23.374;2022-09-13T08:14:07;2.90;;;2.30;;
11334;SDS011;5722;42.620;23.374;2022-09-13T08:16:53;2.65;;;2.45;;
11334;SDS011;5722;42.620;23.374;2022-09-13T08:19:43;2.90;;;2.35;;
11334;SDS011;5722;42.620;23.374;2022-09-13T08:22:18;6.15;;;2.60;;
11334;SDS011;5722;42.620;23.374;2022-09-13T08:24:47;3.20;;;2.30;;
11334;SDS011;5722;42.620;23.374;2022-09-13T08:27:18;3.65;;;2.15;;
11334;SDS011;5722;42.620;23.374;2022-09-13T08:30:01;2.35;;;2.15;;
11334;SDS011;5722;42.620;23.374;2022-09-13T08:32:34;4.00;;;2.30;;
11334;SDS011;5722;42.620;23.374;2022-09-13T08:35:04;4.75;;;2.30;;
11334;SDS011;5722;42.620;23.374;2022-09-13T08:37:34;4.97;;;2.42;;
11334;SDS011;5722;42.620;23.374;2022-09-13T08:40:08;2.13;;;1.90;;
11334;SDS011;5722;42.620;23.374;2022-09-13T08:42:46;4.25;;;2.40;;
11334;SDS011;5722;42.620;23.374;2022-09-13T08:45:31;2.55;;;2.30;;
11334;SDS011;5722;42.620;23.374;2022-09-13T08:48:01;2.50;;;2.30;;
11334;SDS011;5722;42.620;23.374;2022-09-13T08:50:40;4.65;;;2.30;;
11334;SDS011;5722;42.620;23.374;2022-09-13T08:53:16;2.45;;;2.25;;
11334;SDS011;5722;42.620;23.374;2022-09-13T08:56:09;2.08;;;1.90;;
11334;SDS011;5722;42.620;23.374;2022-09-13T08:58:42;6.85;;;2.08;;
11334;SDS011;5722;42.620;23.374;2022-09-13T09:01:34;3.03;;;2.33;;
11334;SDS011;5722;42.620;23.374;2022-09-13T09:07:31;3.10;;;1.80;;
11334;SDS011;5722;42.620;23.374;2022-09-13T09:10:11;1.88;;;1.77;;
11334;SDS011;5722;42.620;23.374;2022-09-13T09:12:48;3.05;;;2.05;;
11334;SDS011;5722;42.620;23.374;2022-09-13T09:15:29;4.95;;;2.20;;
11334;SDS011;5722;42.620;23.374;2022-09-13T09:21:03;2.85;;;2.00;;
11334;SDS011;5722;42.620;23.374;2022-09-13T09:23:45;21.60;;;3.53;;
11334;SDS011;5722;42.620;23.374;2022-09-13T09:26:32;10.63;;;2.33;;
11334;SDS011;5722;42.620;23.374;2022-09-13T09:29:11;2.42;;;1.83;;
11334;SDS011;5722;42.620;23.374;2022-09-13T09:31:58;3.90;;;2.00;;
11334;SDS011;5722;42.620;23.374;2022-09-13T09:37:37;3.75;;;1.85;;
11334;SDS011;5722;42.620;23.374;2022-09-13T09:40:21;2.22;;;1.90;;
11334;SDS011;5722;42.620;23.374;2022-09-13T09:42:52;2.35;;;1.98;;
11334;SDS011;5722;42.620;23.374;2022-09-13T09:45:42;2.10;;;1.90;;
11334;SDS011;5722;42.620;23.374;2022-09-13T09:48:16;2.63;;;1.80;;
11334;SDS011;5722;42.620;23.374;2022-09-13T09:53:43;3.08;;;1.92;;
11334;SDS011;5722;42.620;23.374;2022-09-13T09:56:23;3.13;;;1.80;;
11334;SDS011;5722;42.620;23.374;2022-09-13T09:58:54;2.05;;;1.80;;
11334;SDS011;5722;42.620;23.374;2022-09-13T10:01:33;2.63;;;1.98;;
11334;SDS011;5722;42.620;23.374;2022-09-13T10:04:23;2.00;;;1.90;;
11334;SDS011;5722;42.620;23.374;2022-09-13T10:10:02;4.47;;;1.98;;
11334;SDS011;5722;42.620;23.374;2022-09-13T10:12:56;3.55;;;1.90;;
11334;SDS011;5722;42.620;23.374;2022-09-13T10:15:50;2.08;;;1.88;;
11334;SDS011;5722;42.620;23.374;2022-09-13T10:18:36;6.38;;;2.40;;
11334;SDS011;5722;42.620;23.374;2022-09-13T10:21:19;2.05;;;1.95;;
11334;SDS011;5722;42.620;23.374;2022-09-13T10:24:14;2.90;;;1.92;;
11334;SDS011;5722;42.620;23.374;2022-09-13T10:26:50;2.40;;;1.98;;
11334;SDS011;5722;42.620;23.374;2022-09-13T10:29:34;1.90;;;1.80;;
11334;SDS011;5722;42.620;23.374;2022-09-13T10:32:06;4.80;;;2.00;;
11334;SDS011;5722;42.620;23.374;2022-09-13T10:34:40;3.22;;;2.10;;
11334;SDS011;5722;42.620;23.374;2022-09-13T10:37:20;4.95;;;2.00;;
11334;SDS011;5722;42.620;23.374;2022-09-13T10:40:11;2.13;;;1.70;;
11334;SDS011;5722;42.620;23.374;2022-09-13T10:43:00;2.53;;;1.92;;
11334;SDS011;5722;42.620;23.374;2022-09-13T10:51:20;6.00;;;2.20;;
11334;SDS011;5722;42.620;23.374;2022-09-13T10:57:08;2.50;;;1.90;;
11334;SDS011;5722;42.620;23.374;2022-09-13T11:00:08;2.30;;;1.80;;
11334;SDS011;5722;42.620;23.374;2022-09-13T11:05:46;1.95;;;1.85;;
11334;SDS011;5722;42.620;23.374;2022-09-13T11:08:35;2.72;;;2.10;;
11334;SDS011;5722;42.620;23.374;2022-09-13T11:11:21;2.00;;;1.90;;
11334;SDS011;5722;42.620;23.374;2022-09-13T11:17:08;5.63;;;1.92;;
11334;SDS011;5722;42.620;23.374;2022-09-13T11:20:08;3.35;;;1.90;;
11334;SDS011;5722;42.620;23.374;2022-09-13T11:26:08;2.75;;;2.00;;
11334;SDS011;5722;42.620;23.374;2022-09-13T11:29:02;2.13;;;1.92;;
11334;SDS011;5722;42.620;23.374;2022-09-13T11:34:48;3.25;;;2.08;;
11334;SDS011;5722;42.620;23.374;2022-09-13T11:37:41;1.63;;;1.52;;
11334;SDS011;5722;42.620;23.374;2022-09-13T11:40:41;2.40;;;1.95;;
11334;SDS011;5722;42.620;23.374;2022-09-13T11:43:56;5.55;;;2.50;;
11334;SDS011;5722;42.620;23.374;2022-09-13T11:50:02;6.30;;;2.10;;
11334;SDS011;5722;42.620;23.374;2022-09-13T11:52:59;1.88;;;1.77;;
11334;SDS011;5722;42.620;23.374;2022-09-13T11:55:52;2.00;;;1.83;;
11334;SDS011;5722;42.620;23.374;2022-09-13T11:58:24;2.00;;;1.90;;
11334;SDS011;5722;42.620;23.374;2022-09-13T12:01:16;4.15;;;1.98;;
11334;SDS011;5722;42.620;23.374;2022-09-13T12:03:52;2.38;;;1.80;;
11334;SDS011;5722;42.620;23.374;2022-09-13T12:06:52;2.10;;;1.90;;
11334;SDS011;5722;42.620;23.374;2022-09-13T12:09:28;1.92;;;1.73;;
11334;SDS011;5722;42.620;23.374;2022-09-13T12:12:05;1.90;;;1.80;;
11334;SDS011;5722;42.620;23.374;2022-09-13T12:14:44;2.15;;;1.90;;
11334;SDS011;5722;42.620;23.374;2022-09-13T12:17:26;4.82;;;1.55;;
11334;SDS011;5722;42.620;23.374;2022-09-13T12:20:14;2.30;;;1.95;;
11334;SDS011;5722;42.620;23.374;2022-09-13T12:22:51;2.40;;;1.90;;
11334;SDS011;5722;42.620;23.374;2022-09-13T12:25:29;4.25;;;1.90;;
11334;SDS011;5722;42.620;23.374;2022-09-13T12:28:09;4.50;;;1.95;;
11334;SDS011;5722;42.620;23.374;2022-09-13T12:30:46;2.00;;;1.85;;
11334;SDS011;5722;42.620;23.374;2022-09-13T12:33:19;2.20;;;2.00;;
11334;SDS011;5722;42.620;23.374;2022-09-13T12:36:12;3.53;;;1.92;;
11334;SDS011;5722;42.620;23.374;2022-09-13T12:48:45;1.70;;;1.60;;
11334;SDS011;5722;42.620;23.374;2022-09-13T12:51:43;1.90;;;1.80;;
11334;SDS011;5722;42.620;23.374;2022-09-13T12:54:38;3.22;;;2.10;;
11334;SDS011;5722;42.620;23.374;2022-09-13T12:57:26;4.50;;;1.73;;
11334;SDS011;5722;42.620;23.374;2022-09-13T13:00:15;5.20;;;1.80;;
11334;SDS011;5722;42.620;23.374;2022-09-13T13:02:50;2.00;;;1.80;;
11334;SDS011;5722;42.620;23.374;2022-09-13T13:05:26;1.95;;;1.85;;
11334;SDS011;5722;42.620;23.374;2022-09-13T13:08:15;2.10;;;1.90;;
11334;SDS011;5722;42.620;23.374;2022-09-13T13:11:04;3.55;;;1.83;;
11334;SDS011;5722;42.620;23.374;2022-09-13T13:13:43;2.85;;;1.63;;
11334;SDS011;5722;42.620;23.374;2022-09-13T13:16:25;1.92;;;1.70;;
11334;SDS011;5722;42.620;23.374;2022-09-13T13:37:00;3.65;;;1.98;;
11334;SDS011;5722;42.620;23.374;2022-09-13T13:42:51;2.70;;;2.00;;
11334;SDS011;5722;42.620;23.374;2022-09-13T13:58:36;2.00;;;1.90;;
11334;SDS011;5722;42.620;23.374;2022-09-13T14:01:20;2.60;;;2.00;;
11334;SDS011;5722;42.620;23.374;2022-09-13T14:07:09;2.88;;;1.90;;
11334;SDS011;5722;42.620;23.374;2022-09-13T14:09:54;3.97;;;2.17;;
11334;SDS011;5722;42.620;23.374;2022-09-13T14:12:53;4.88;;;2.10;;
11334;SDS011;5722;42.620;23.374;2022-09-13T14:15:39;2.67;;;2.30;;
11334;SDS011;5722;42.620;23.374;2022-09-13T14:21:31;2.50;;;2.30;;
11334;SDS011;5722;42.620;23.374;2022-09-13T14:24:14;2.42;;;1.95;;
11334;SDS011;5722;42.620;23.374;2022-09-13T14:26:56;2.75;;;2.20;;
11334;SDS011;5722;42.620;23.374;2022-09-13T14:29:30;2.50;;;2.30;;
11334;SDS011;5722;42.620;23.374;2022-09-13T14:35:32;2.83;;;2.20;;
11334;SDS011;5722;42.620;23.374;2022-09-13T14:38:17;2.85;;;2.20;;
11334;SDS011;5722;42.620;23.374;2022-09-13T14:40:56;2.20;;;2.00;;
11334;SDS011;5722;42.620;23.374;2022-09-13T14:43:29;2.30;;;2.10;;
11334;SDS011;5722;42.620;23.374;2022-09-13T14:46:02;3.83;;;2.10;;
11334;SDS011;5722;42.620;23.374;2022-09-13T14:48:39;2.50;;;2.00;;
11334;SDS011;5722;42.620;23.374;2022-09-13T14:59:46;2.65;;;1.98;;
11334;SDS011;5722;42.620;23.374;2022-09-13T15:03:33;2.80;;;2.30;;
11334;SDS011;5722;42.620;23.374;2022-09-13T15:11:57;3.55;;;2.10;;
11334;SDS011;5722;42.620;23.374;2022-09-13T15:18:28;2.15;;;1.95;;
11334;SDS011;5722;42.620;23.374;2022-09-13T15:27:47;2.47;;;2.00;;
11334;SDS011;5722;42.620;23.374;2022-09-13T15:30:20;2.60;;;2.10;;
11334;SDS011;5722;42.620;23.374;2022-09-13T15:39:22;2.20;;;2.00;;
11334;SDS011;5722;42.620;23.374;2022-09-13T15:45:24;2.38;;;2.17;;
11334;SDS011;5722;42.620;23.374;2022-09-13T15:57:29;2.92;;;2.60;;
11334;SDS011;5722;42.620;23.374;2022-09-13T16:00:10;2.90;;;2.20;;
11334;SDS011;5722;42.620;23.374;2022-09-13T16:05:39;3.50;;;2.22;;
11334;SDS011;5722;42.620;23.374;2022-09-13T16:08:23;3.55;;;2.53;;
11334;SDS011;5722;42.620;23.374;2022-09-13T16:11:05;3.00;;;2.25;;
11334;SDS011;5722;42.620;23.374;2022-09-13T16:13:43;2.53;;;2.33;;
11334;SDS011;5722;42.620;23.374;2022-09-13T16:16:16;4.13;;;2.40;;
11334;SDS011;5722;42.620;23.374;2022-09-13T16:21:55;4.35;;;2.35;;
11334;SDS011;5722;42.620;23.374;2022-09-13T16:24:36;2.63;;;2.42;;
11334;SDS011;5722;42.620;23.374;2022-09-13T16:27:06;2.40;;;2.20;;
11334;SDS011;5722;42.620;23.374;2022-09-13T16:29:36;3.30;;;2.60;;
11334;SDS011;5722;42.620;23.374;2022-09-13T16:32:14;4.15;;;2.63;;
11334;SDS011;5722;42.620;23.374;2022-09-13T16:37:44;2.45;;;2.25;;
11334;SDS011;5722;42.620;23.374;2022-09-13T16:40:34;2.60;;;2.40;;
11334;SDS011;5722;42.620;23.374;2022-09-13T16:43:09;3.20;;;2.90;;
11334;SDS011;5722;42.620;23.374;2022-09-13T16:45:46;3.28;;;2.50;;
11334;SDS011;5722;42.620;23.374;2022-09-13T16:48:26;4.53;;;3.17;;
11334;SDS011;5722;42.620;23.374;2022-09-13T16:51:08;4.43;;;2.97;;
11334;SDS011;5722;42.620;23.374;2022-09-13T16:57:08;9.05;;;3.05;;
11334;SDS011;5722;42.620;23.374;2022-09-13T17:03:11;4.00;;;3.03;;
11334;SDS011;5722;42.620;23.374;2022-09-13T17:05:46;3.25;;;2.85;;
11334;SDS011;5722;42.620;23.374;2022-09-13T17:08:32;3.95;;;3.20;;
11334;SDS011;5722;42.620;23.374;2022-09-13T17:11:07;4.28;;;3.28;;
11334;SDS011;5722;42.620;23.374;2022-09-13T17:13:50;3.75;;;3.45;;
11334;SDS011;5722;42.620;23.374;2022-09-13T17:22:59;3.15;;;2.95;;
11334;SDS011;5722;42.620;23.374;2022-09-13T17:25:48;3.38;;;3.17;;
11334;SDS011;5722;42.620;23.374;2022-09-13T17:28:28;3.75;;;3.35;;
11334;SDS011;5722;42.620;23.374;2022-09-13T18:03:29;3.53;;;3.22;;
11334;SDS011;5722;42.620;23.374;2022-09-13T18:15:10;3.85;;;3.40;;
11334;SDS011;5722;42.620;23.374;2022-09-13T18:44:52;7.50;;;3.05;;
11334;SDS011;5722;42.620;23.374;2022-09-13T18:50:44;3.40;;;2.90;;
11334;SDS011;5722;42.620;23.374;2022-09-13T18:53:23;3.45;;;3.15;;
11334;SDS011;5722;42.620;23.374;2022-09-13T18:55:52;6.43;;;3.30;;
11334;SDS011;5722;42.620;23.374;2022-09-13T18:58:39;3.50;;;3.20;;
11334;SDS011;5722;42.620;23.374;2022-09-13T19:04:26;3.50;;;3.20;;
11334;SDS011;5722;42.620;23.374;2022-09-13T19:07:15;3.90;;;3.60;;
11334;SDS011;5722;42.620;23.374;2022-09-13T19:10:07;3.60;;;3.30;;
11334;SDS011;5722;42.620;23.374;2022-09-13T19:12:47;7.77;;;3.53;;
11334;SDS011;5722;42.620;23.374;2022-09-13T19:18:37;3.60;;;3.30;;
11334;SDS011;5722;42.620;23.374;2022-09-13T19:24:23;5.50;;;3.50;;
11334;SDS011;5722;42.620;23.374;2022-09-13T19:27:05;4.20;;;3.80;;
11334;SDS011;5722;42.620;23.374;2022-09-13T19:29:43;3.83;;;3.53;;
11334;SDS011;5722;42.620;23.374;2022-09-13T19:37:34;3.90;;;3.57;;
11334;SDS011;5722;42.620;23.374;2022-09-13T19:40:17;5.47;;;3.67;;
11334;SDS011;5722;42.620;23.374;2022-09-13T19:42:44;4.80;;;3.60;;
11334;SDS011;5722;42.620;23.374;2022-09-13T19:45:15;4.27;;;3.87;;
11334;SDS011;5722;42.620;23.374;2022-09-13T19:47:47;3.90;;;3.60;;
11334;SDS011;5722;42.620;23.374;2022-09-13T19:50:19;6.33;;;4.03;;
11334;SDS011;5722;42.620;23.374;2022-09-13T19:52:49;5.17;;;3.87;;
11334;SDS011;5722;42.620;23.374;2022-09-13T19:55:24;3.83;;;3.50;;
11334;SDS011;5722;42.620;23.374;2022-09-13T19:57:54;4.13;;;3.70;;
11334;SDS011;5722;42.620;23.374;2022-09-13T20:00:23;4.53;;;4.07;;